Terminal Aerodrome Forecast
Issued by NWS Sterling, VA

Home | Current Version | Previous Version | Text Only | Print | Product List | Glossary On
Versions: 1 2 3 4 5 6 7 8 9 10 11 12 13 14 15 16 17 18 19 20 21 22 23 24 25 26 27 28
896
FTUS41 KLWX 222040 AAA
TAFIAD
TAF AMD
KIAD 222040Z 2221/2324 19010G18KT P6SM BKN050
     FM230000 21009KT P6SM VCTS BKN050CB BKN250
     FM230500 24005KT P6SM BKN050 BKN250
     FM231100 34006KT P6SM BKN100
     FM231800 32007KT P6SM BKN250=

USA.gov is the U.S. government's official web portal to all federal, state and local government web resources and services.